createdAt,value
2023-03-18T00:01:12.728Z,1.03
2023-03-18T00:06:21.853Z,0.97
2023-03-18T00:11:27.062Z,0.90
2023-03-18T00:16:30.282Z,0.70
2023-03-18T00:21:35.289Z,0.90
2023-03-18T00:26:38.547Z,0.90
2023-03-18T00:31:41.969Z,0.80
2023-03-18T00:36:49.350Z,0.93
2023-03-18T00:41:52.821Z,1.30
2023-03-18T00:46:56.009Z,0.90
2023-03-18T00:52:00.707Z,0.80
2023-03-18T00:57:03.943Z,1.17
2023-03-18T01:02:07.117Z,0.70
2023-03-18T01:07:13.459Z,1.17
2023-03-18T01:12:17.637Z,0.97
2023-03-18T01:17:20.728Z,1.10
2023-03-18T01:22:25.527Z,0.70
2023-03-18T01:27:28.738Z,1.03
2023-03-18T01:32:34.519Z,1.10
2023-03-18T01:37:39.366Z,1.40
2023-03-18T01:42:53.608Z,1.10
2023-03-18T01:47:58.439Z,1.00
2023-03-18T01:53:06.910Z,1.00
2023-03-18T01:58:24.502Z,1.00
2023-03-18T02:03:29.449Z,1.00
2023-03-18T02:08:34.246Z,1.37
2023-03-18T02:13:42.497Z,1.20
2023-03-18T02:18:50.607Z,1.17
2023-03-18T02:24:04.242Z,0.97
2023-03-18T02:29:09.652Z,1.20
2023-03-18T02:34:26.306Z,0.80
2023-03-18T02:39:31.702Z,0.77
2023-03-18T02:44:43.139Z,1.00
2023-03-18T02:50:15.431Z,0.87
2023-03-18T02:55:18.941Z,1.23
2023-03-18T03:00:24.059Z,1.00
2023-03-18T03:05:27.462Z,1.00
2023-03-18T03:10:31.697Z,0.90
2023-03-18T03:15:37.000Z,0.73
2023-03-18T03:20:40.765Z,1.00
2023-03-18T03:25:44.997Z,1.20
2023-03-18T03:30:49.788Z,0.97
2023-03-18T03:35:53.456Z,0.80
2023-03-18T03:40:56.618Z,0.70
2023-03-18T03:46:01.346Z,0.80
2023-03-18T03:51:05.192Z,0.60
2023-03-18T03:56:09.315Z,0.70
2023-03-18T04:01:14.221Z,0.77
2023-03-18T04:06:18.754Z,0.40
2023-03-18T04:11:31.397Z,0.50
2023-03-18T04:16:36.456Z,0.60
2023-03-18T04:21:40.374Z,0.50
2023-03-18T04:26:43.741Z,0.50
2023-03-18T04:31:48.705Z,0.30
2023-03-18T04:36:52.688Z,0.50
2023-03-18T04:41:57.060Z,0.70
2023-03-18T04:47:01.902Z,0.50
2023-03-18T04:52:06.317Z,0.50
2023-03-18T04:57:11.117Z,0.47
2023-03-18T05:02:21.615Z,0.70
2023-03-18T05:07:26.205Z,0.70
2023-03-18T05:12:38.904Z,0.57
2023-03-18T05:17:45.943Z,0.60
2023-03-18T05:22:49.229Z,0.50
2023-03-18T05:28:03.017Z,0.90
2023-03-18T05:33:16.894Z,0.70
2023-03-18T05:38:27.779Z,0.80
2023-03-18T05:43:31.609Z,0.97
2023-03-18T05:48:37.018Z,1.00
2023-03-18T05:53:42.944Z,0.90
2023-03-18T05:58:55.715Z,0.90
2023-03-18T06:04:06.760Z,0.73
2023-03-18T06:09:11.970Z,0.80
2023-03-18T06:14:17.424Z,0.70
2023-03-18T06:19:23.315Z,0.60
2023-03-18T06:24:27.809Z,0.60
2023-03-18T06:29:33.102Z,0.70
2023-03-18T06:34:45.463Z,0.70
2023-03-18T06:39:49.649Z,0.80
2023-03-18T06:44:54.658Z,1.10
2023-03-18T06:50:06.633Z,1.37
2023-03-18T06:55:13.051Z,1.30
2023-03-18T07:00:21.881Z,1.03
2023-03-18T07:05:28.429Z,0.90
2023-03-18T07:10:32.006Z,1.23
2023-03-18T07:15:43.544Z,1.30
2023-03-18T07:20:49.161Z,1.20
2023-03-18T07:25:52.597Z,1.37
2023-03-18T07:30:56.505Z,1.07
2023-03-18T07:36:01.958Z,0.90
2023-03-18T07:41:06.149Z,0.90
2023-03-18T07:46:09.635Z,1.00
2023-03-18T07:51:15.106Z,0.90
2023-03-18T07:56:18.355Z,0.80
2023-03-18T08:01:21.508Z,1.27
2023-03-18T08:06:26.331Z,0.80
2023-03-18T08:11:30.174Z,1.07
2023-03-18T08:16:33.756Z,0.60
2023-03-18T08:21:38.362Z,0.70
2023-03-18T08:26:42.171Z,0.90
2023-03-18T08:31:45.600Z,0.83
2023-03-18T08:36:50.148Z,0.90
2023-03-18T08:41:53.395Z,1.00
2023-03-18T08:46:57.695Z,0.93
2023-03-18T08:52:02.267Z,0.77
2023-03-18T08:57:05.760Z,0.83
2023-03-18T09:02:14.855Z,1.10
2023-03-18T09:07:19.399Z,0.70
2023-03-18T09:12:23.272Z,1.00
2023-03-18T09:17:43.866Z,0.67
2023-03-18T09:22:52.433Z,1.07
2023-03-18T09:27:56.031Z,0.80
2023-03-18T09:32:59.661Z,0.83
2023-03-18T09:38:04.900Z,0.70
2023-03-18T09:43:24.497Z,1.10
2023-03-18T09:48:46.657Z,1.10
2023-03-18T09:53:56.745Z,1.00
2023-03-18T09:59:04.455Z,1.40
2023-03-18T10:04:15.355Z,0.87
2023-03-18T10:09:26.405Z,0.87
2023-03-18T10:14:38.246Z,1.10
2023-03-18T10:19:46.451Z,0.70
2023-03-18T10:25:00.152Z,0.70
2023-03-18T10:30:15.835Z,0.90
2023-03-18T10:35:28.074Z,0.80
2023-03-18T10:40:39.631Z,0.83
2023-03-18T10:45:44.554Z,0.90
2023-03-18T10:50:53.907Z,0.90
2023-03-18T10:56:06.202Z,0.67
2023-03-18T11:01:12.899Z,1.20
2023-03-18T11:06:21.300Z,0.67
2023-03-18T11:11:33.022Z,0.60
2023-03-18T11:16:39.766Z,0.50
2023-03-18T11:21:43.105Z,0.50
2023-03-18T11:26:53.709Z,0.40
2023-03-18T11:31:59.249Z,0.60
2023-03-18T11:37:05.667Z,0.50
2023-03-18T11:42:22.063Z,0.60
2023-03-18T11:47:30.186Z,0.60
2023-03-18T11:52:41.258Z,0.60
2023-03-18T11:58:03.591Z,0.60
2023-03-18T12:03:45.391Z,0.90
2023-03-18T12:09:01.033Z,0.70
2023-03-18T12:14:12.302Z,0.70
2023-03-18T12:19:42.449Z,0.70
2023-03-18T12:25:30.276Z,0.60
2023-03-18T12:30:57.182Z,0.60
2023-03-18T12:36:08.811Z,0.60
2023-03-18T12:41:19.571Z,0.50
2023-03-18T12:46:30.241Z,0.43
2023-03-18T12:51:43.428Z,0.50
2023-03-18T12:56:51.100Z,0.80
2023-03-18T13:02:14.511Z,0.77
2023-03-18T13:07:22.238Z,0.70
2023-03-18T13:12:27.630Z,0.87
2023-03-18T13:17:37.044Z,1.03
2023-03-18T13:23:17.895Z,0.90
2023-03-18T13:28:45.714Z,0.80
2023-03-18T13:34:28.697Z,0.70
2023-03-18T13:40:00.481Z,0.90
2023-03-18T13:45:08.803Z,0.70
2023-03-18T13:50:32.329Z,0.60
2023-03-18T13:55:44.401Z,0.70
2023-03-18T14:01:28.379Z,0.80
2023-03-18T14:06:53.096Z,0.90
2023-03-18T14:12:04.048Z,0.70
2023-03-18T14:17:15.829Z,0.73
2023-03-18T14:22:24.912Z,0.77
2023-03-18T14:27:28.293Z,0.80
2023-03-18T14:32:39.988Z,0.80
2023-03-18T14:38:03.512Z,0.70
2023-03-18T14:43:11.981Z,0.50
2023-03-18T14:48:20.753Z,0.63
2023-03-18T14:53:32.570Z,0.50
2023-03-18T14:58:36.315Z,0.80
2023-03-18T15:03:41.222Z,0.67
2023-03-18T15:08:50.497Z,0.63
2023-03-18T15:13:57.805Z,0.53
2023-03-18T15:19:05.399Z,0.60
2023-03-18T15:24:10.596Z,0.60
2023-03-18T15:29:27.834Z,0.90
2023-03-18T15:34:33.723Z,0.70
2023-03-18T15:39:40.031Z,0.60
2023-03-18T15:44:46.213Z,0.57
2023-03-18T15:49:54.740Z,0.73
2023-03-18T15:54:59.306Z,0.90
2023-03-18T16:00:04.223Z,1.20
2023-03-18T16:05:18.325Z,1.30
2023-03-18T16:10:26.327Z,1.23
2023-03-18T16:15:31.889Z,1.67
2023-03-18T16:20:35.311Z,1.53
2023-03-18T16:25:40.108Z,0.97
2023-03-18T16:30:43.569Z,1.73
2023-03-18T16:35:51.189Z,0.80
2023-03-18T16:40:57.788Z,1.03
2023-03-18T16:46:05.596Z,0.87
2023-03-18T16:51:09.230Z,0.70
2023-03-18T16:56:18.190Z,0.67
2023-03-18T17:01:21.538Z,0.40
2023-03-18T17:06:24.826Z,0.60
2023-03-18T17:11:29.428Z,0.40
2023-03-18T17:16:32.673Z,0.40
2023-03-18T17:21:36.043Z,0.53
2023-03-18T17:26:40.606Z,0.50
2023-03-18T17:31:44.459Z,0.50
2023-03-18T17:36:47.957Z,0.40
2023-03-18T17:41:52.690Z,0.50
2023-03-18T17:46:56.417Z,0.50
2023-03-18T17:52:00.130Z,0.30
2023-03-18T17:57:05.756Z,0.40
2023-03-18T18:02:12.845Z,0.33
2023-03-18T18:07:18.715Z,0.40
2023-03-18T18:12:25.217Z,0.27
2023-03-18T18:17:28.358Z,0.50
2023-03-18T18:22:31.818Z,0.30
2023-03-18T18:27:36.476Z,0.50
2023-03-18T18:32:39.796Z,0.47
2023-03-18T18:37:42.997Z,0.40
2023-03-18T18:42:47.722Z,0.57
2023-03-18T18:47:51.727Z,0.50
2023-03-18T18:52:55.645Z,0.40
2023-03-18T18:58:00.173Z,0.47
2023-03-18T19:03:03.321Z,0.40
2023-03-18T19:08:07.242Z,0.50
2023-03-18T19:13:16.675Z,0.40
2023-03-18T19:18:21.864Z,0.40
2023-03-18T19:23:27.903Z,0.40
2023-03-18T19:28:58.790Z,0.40
2023-03-18T19:34:03.468Z,0.50
2023-03-18T19:39:12.832Z,0.50
2023-03-18T19:44:19.214Z,0.47
2023-03-18T19:49:25.673Z,0.57
2023-03-18T19:54:31.711Z,0.63
2023-03-18T19:59:39.618Z,0.60
2023-03-18T20:04:43.012Z,0.60
2023-03-18T20:09:47.053Z,0.97
2023-03-18T20:14:51.747Z,0.70
2023-03-18T20:19:55.041Z,0.73
2023-03-18T20:24:58.250Z,0.80
2023-03-18T20:30:03.227Z,0.57
2023-03-18T20:35:06.788Z,0.87
2023-03-18T20:40:19.181Z,0.60
2023-03-18T20:45:25.625Z,0.80
2023-03-18T20:50:29.966Z,0.60
2023-03-18T20:55:35.382Z,0.60
2023-03-18T21:00:40.655Z,0.50
2023-03-18T21:05:44.086Z,0.50
2023-03-18T21:10:47.350Z,0.60
2023-03-18T21:15:52.412Z,0.60
2023-03-18T21:20:56.598Z,0.63
2023-03-18T21:25:59.847Z,0.60
2023-03-18T21:31:04.930Z,0.70
2023-03-18T21:36:10.835Z,0.60
2023-03-18T21:41:21.771Z,0.60
2023-03-18T21:46:27.170Z,0.60
2023-03-18T21:51:39.015Z,0.70
2023-03-18T21:56:42.753Z,0.50
2023-03-18T22:01:47.251Z,0.60
2023-03-18T22:06:50.983Z,0.90
2023-03-18T22:11:54.142Z,0.77
2023-03-18T22:16:58.650Z,0.60
2023-03-18T22:22:01.814Z,0.60
2023-03-18T22:27:05.572Z,0.60
2023-03-18T22:32:23.717Z,0.60
2023-03-18T22:37:27.662Z,0.60
2023-03-18T22:42:31.054Z,0.40
2023-03-18T22:47:35.481Z,0.57
2023-03-18T22:52:39.813Z,0.60
2023-03-18T22:57:43.152Z,0.40
2023-03-18T23:02:50.454Z,0.50
2023-03-18T23:07:54.041Z,0.40
2023-03-18T23:12:57.283Z,0.50
2023-03-18T23:18:03.010Z,0.87
2023-03-18T23:23:06.589Z,0.50
2023-03-18T23:28:09.726Z,0.60
2023-03-18T23:33:14.758Z,0.60
2023-03-18T23:38:18.023Z,0.60
2023-03-18T23:43:22.060Z,0.57
2023-03-18T23:48:26.594Z,0.40
2023-03-18T23:53:30.173Z,0.50
2023-03-18T23:58:33.323Z,0.40
